createdAt,value
2018-01-12T00:00:31.977Z,6.17
2018-01-12T00:01:31.388Z,6.18
2018-01-12T00:02:31.489Z,6.17
2018-01-12T00:03:32.339Z,6.19
2018-01-12T00:04:32.073Z,6.17
2018-01-12T00:05:31.402Z,6.18
2018-01-12T00:06:31.628Z,6.19
2018-01-12T00:07:31.131Z,6.19
2018-01-12T00:08:31.527Z,6.17
2018-01-12T00:09:31.922Z,6.19
2018-01-12T00:10:31.405Z,6.18
2018-01-12T00:11:32.012Z,6.2
2018-01-12T00:12:31.395Z,6.19
2018-01-12T00:13:31.966Z,6.18
2018-01-12T00:14:32.438Z,6.14
2018-01-12T00:15:31.852Z,6.15
2018-01-12T00:16:32.218Z,6.16
2018-01-12T00:17:31.550Z,6.18
2018-01-12T00:18:31.822Z,6.17
2018-01-12T00:19:32.088Z,6.18
2018-01-12T00:20:31.509Z,6.18
2018-01-12T00:21:31.868Z,6.2
2018-01-12T00:22:32.098Z,6.2
2018-01-12T00:23:31.733Z,6.19
2018-01-12T00:24:32.426Z,6.19
2018-01-12T00:25:31.732Z,6.19
2018-01-12T00:26:32.097Z,6.17
2018-01-12T00:27:31.361Z,6.18
2018-01-12T00:28:31.698Z,6.18
2018-01-12T00:29:32.014Z,6.18
2018-01-12T00:30:31.682Z,6.15
2018-01-12T00:31:32.028Z,6.17
2018-01-12T00:32:32.219Z,6.16
2018-01-12T00:33:31.546Z,6.18
2018-01-12T00:34:32.242Z,6.15
2018-01-12T00:35:31.748Z,6.15
2018-01-12T00:36:32.064Z,6.17
2018-01-12T00:37:31.425Z,6.16
2018-01-12T00:38:32.451Z,6.15
2018-01-12T00:39:31.806Z,6.19
2018-01-12T00:40:32.120Z,6.17
2018-01-12T00:41:31.471Z,6.15
2018-01-12T00:42:31.825Z,6.16
2018-01-12T00:43:31.955Z,6.15
2018-01-12T00:44:31.352Z,6.13
2018-01-12T00:45:31.519Z,6.1
2018-01-12T00:46:31.824Z,6.11
2018-01-12T00:47:31.277Z,6.13
2018-01-12T00:48:31.507Z,6.13
2018-01-12T00:49:31.683Z,6.13
2018-01-12T00:50:32.057Z,6.1
2018-01-12T00:51:31.312Z,6.11
2018-01-12T00:52:31.545Z,6.06
2018-01-12T00:53:31.922Z,6.1
2018-01-12T00:54:31.217Z,6.09
2018-01-12T00:55:31.682Z,6.09
2018-01-12T00:56:32.101Z,6.08
2018-01-12T00:57:31.519Z,6.08
2018-01-12T00:58:31.912Z,6.09
2018-01-12T00:59:31.341Z,6.13
2018-01-12T01:00:31.694Z,6.07
2018-01-12T01:01:32.052Z,6.11
2018-01-12T01:02:31.476Z,6.07
2018-01-12T01:03:31.781Z,6.09
2018-01-12T01:04:32.118Z,6.09
2018-01-12T01:05:31.625Z,6.1
2018-01-12T01:06:31.937Z,6.1
2018-01-12T01:07:31.318Z,6.07
2018-01-12T01:08:31.562Z,6.03
2018-01-12T01:09:31.781Z,6.03
2018-01-12T01:10:31.419Z,6.02
2018-01-12T01:11:32.612Z,6.01
2018-01-12T01:12:31.127Z,6.03
2018-01-12T01:13:31.590Z,6.02
2018-01-12T01:14:31.063Z,6.06
2018-01-12T01:15:31.433Z,6.05
2018-01-12T01:16:31.008Z,6
2018-01-12T01:17:31.271Z,6.01
2018-01-12T01:18:31.424Z,6.01
2018-01-12T01:19:31.661Z,5.98
2018-01-12T01:20:31.730Z,5.99
2018-01-12T01:21:30.984Z,5.99
2018-01-12T01:22:31.243Z,6.02
2018-01-12T01:23:31.519Z,6.01
2018-01-12T01:24:30.801Z,6
2018-01-12T01:25:31.154Z,5.99
2018-01-12T01:26:31.501Z,6.01
2018-01-12T01:27:31.138Z,6.01
2018-01-12T01:28:31.484Z,6
2018-01-12T01:29:31.751Z,5.97
2018-01-12T01:30:31.021Z,5.96
2018-01-12T01:31:31.334Z,5.96
2018-01-12T01:32:31.914Z,5.97
2018-01-12T01:33:31.170Z,5.97
2018-01-12T01:34:31.668Z,5.95
2018-01-12T01:35:30.976Z,5.94
2018-01-12T01:36:31.855Z,5.91
2018-01-12T01:37:31.272Z,5.93
2018-01-12T01:38:30.846Z,5.91
2018-01-12T01:39:31.175Z,5.92
2018-01-12T01:40:31.505Z,5.9
2018-01-12T01:41:30.897Z,5.91
2018-01-12T01:42:31.254Z,5.93
2018-01-12T01:43:31.450Z,5.91
2018-01-12T01:44:31.704Z,5.92
2018-01-12T01:45:31.889Z,5.91
2018-01-12T01:46:32.089Z,5.86
2018-01-12T01:47:31.420Z,5.88
2018-01-12T01:48:31.910Z,5.88
2018-01-12T01:49:31.610Z,5.89
2018-01-12T01:50:31.962Z,5.83
2018-01-12T01:51:31.379Z,5.85
2018-01-12T01:52:31.620Z,5.87
2018-01-12T01:53:32.030Z,5.86
2018-01-12T01:55:32.242Z,5.86
2018-01-12T01:56:31.598Z,5.82
2018-01-12T01:57:31.928Z,5.83
2018-01-12T01:58:31.378Z,5.81
2018-01-12T01:59:31.736Z,5.83
2018-01-12T02:00:32.241Z,5.82
2018-01-12T02:01:31.402Z,5.79
2018-01-12T02:02:31.717Z,5.78
2018-01-12T02:03:32.208Z,5.81
2018-01-12T02:04:31.711Z,5.81
2018-01-12T02:05:31.995Z,5.78
2018-01-12T02:06:32.884Z,5.8
2018-01-12T02:07:32.106Z,5.75
2018-01-12T02:08:31.401Z,5.77
2018-01-12T02:09:31.863Z,5.8
2018-01-12T02:10:32.229Z,5.78
2018-01-12T02:11:31.715Z,5.78
2018-01-12T02:12:32.047Z,5.76
2018-01-12T02:13:31.249Z,5.77
2018-01-12T02:14:31.650Z,5.76
2018-01-12T02:15:31.992Z,5.76
2018-01-12T02:16:31.336Z,5.77
2018-01-12T02:17:31.536Z,5.74
2018-01-12T02:18:31.709Z,5.73
2018-01-12T02:19:32.122Z,5.77
2018-01-12T02:20:31.551Z,5.73
2018-01-12T02:21:32.037Z,5.78
2018-01-12T02:22:31.735Z,5.75
2018-01-12T02:23:32.039Z,5.75
2018-01-12T02:24:31.471Z,5.76
2018-01-12T02:25:31.960Z,5.77
2018-01-12T02:26:31.485Z,5.8
2018-01-12T02:27:31.990Z,5.78
2018-01-12T02:28:31.651Z,5.8
2018-01-12T02:29:32.031Z,5.76
2018-01-12T02:30:31.483Z,5.79
2018-01-12T02:31:31.469Z,5.8
2018-01-12T02:32:32.017Z,5.78
2018-01-12T02:33:31.652Z,5.75
2018-01-12T02:34:32.246Z,5.76
2018-01-12T02:35:31.754Z,5.79
2018-01-12T02:36:32.185Z,5.78
2018-01-12T02:37:31.565Z,5.78
2018-01-12T02:38:32.024Z,5.79
2018-01-12T02:39:31.538Z,5.8
2018-01-12T02:40:31.898Z,5.78
2018-01-12T02:41:31.403Z,5.78
2018-01-12T02:42:31.922Z,5.79
2018-01-12T02:43:31.297Z,5.77
2018-01-12T02:44:31.853Z,5.76
2018-01-12T02:45:32.291Z,5.74
2018-01-12T02:46:31.857Z,5.78
2018-01-12T02:47:32.419Z,5.78
2018-01-12T02:48:31.977Z,5.78
2018-01-12T02:49:32.572Z,5.78
2018-01-12T02:50:31.674Z,5.77
2018-01-12T02:51:31.993Z,5.78
2018-01-12T02:52:31.495Z,5.8
2018-01-12T02:53:31.793Z,5.77
2018-01-12T02:54:32.264Z,5.81
2018-01-12T02:55:31.908Z,5.8
2018-01-12T02:56:32.132Z,5.83
2018-01-12T02:57:31.393Z,5.8
2018-01-12T02:58:31.748Z,5.79
2018-01-12T02:59:32.239Z,5.81
2018-01-12T03:00:31.661Z,5.8
2018-01-12T03:01:32.444Z,5.81
2018-01-12T03:02:31.855Z,5.82
2018-01-12T03:03:32.164Z,5.82
2018-01-12T03:04:31.667Z,5.83
2018-01-12T03:05:32.117Z,5.8
2018-01-12T03:06:31.916Z,5.81
2018-01-12T03:07:31.669Z,5.82
2018-01-12T03:08:32.153Z,5.81
2018-01-12T03:09:31.549Z,5.8
2018-01-12T03:10:31.878Z,5.8
2018-01-12T03:11:32.170Z,5.8
2018-01-12T03:12:31.649Z,5.81
2018-01-12T03:13:32.087Z,5.79
2018-01-12T03:14:31.351Z,5.79
2018-01-12T03:15:31.672Z,5.79
2018-01-12T03:16:32.029Z,5.8
2018-01-12T03:17:31.677Z,5.79
2018-01-12T03:18:32.039Z,5.8
2018-01-12T03:19:31.515Z,5.8
2018-01-12T03:20:32.017Z,5.8
2018-01-12T03:21:31.486Z,5.79
2018-01-12T03:22:32.080Z,5.8
2018-01-12T03:23:31.415Z,5.84
2018-01-12T03:24:31.840Z,5.82
2018-01-12T03:25:31.293Z,5.82
2018-01-12T03:26:31.591Z,5.85
2018-01-12T03:27:32.044Z,5.82
2018-01-12T03:28:31.701Z,5.83
2018-01-12T03:29:31.203Z,5.81
2018-01-12T03:30:31.677Z,5.8
2018-01-12T03:31:31.967Z,5.84
2018-01-12T03:32:32.386Z,5.81
2018-01-12T03:33:31.783Z,5.84
2018-01-12T03:34:32.034Z,5.84
2018-01-12T03:35:31.441Z,5.84
2018-01-12T03:36:31.941Z,5.82
2018-01-12T03:37:31.325Z,5.84
2018-01-12T03:38:31.498Z,5.84
2018-01-12T03:39:31.888Z,5.85
2018-01-12T03:40:31.226Z,5.85
2018-01-12T03:41:31.596Z,5.87
2018-01-12T03:42:32.205Z,5.84
2018-01-12T03:43:31.475Z,5.85
2018-01-12T03:44:31.892Z,5.88
2018-01-12T03:45:31.228Z,5.84
2018-01-12T03:46:31.454Z,5.87
2018-01-12T03:47:30.772Z,5.86
2018-01-12T03:48:31.102Z,5.89
2018-01-12T03:49:31.391Z,5.86
2018-01-12T03:50:30.955Z,5.87
2018-01-12T03:51:31.459Z,5.88
2018-01-12T03:52:30.954Z,5.86
2018-01-12T03:53:31.402Z,5.87
2018-01-12T03:54:31.582Z,5.86
2018-01-12T03:55:30.925Z,5.87
2018-01-12T03:56:31.490Z,5.84
2018-01-12T03:57:30.872Z,5.84
2018-01-12T03:58:31.161Z,5.86
2018-01-12T03:59:31.413Z,5.83
2018-01-12T04:00:30.622Z,5.85
2018-01-12T04:01:31.133Z,5.85
2018-01-12T04:02:31.564Z,5.86
2018-01-12T04:03:30.961Z,5.87
2018-01-12T04:04:31.499Z,5.85
2018-01-12T04:05:30.984Z,5.82
2018-01-12T04:06:31.356Z,5.84
2018-01-12T04:07:31.701Z,5.85
2018-01-12T04:08:31.089Z,5.85
2018-01-12T04:09:31.390Z,5.85
2018-01-12T04:10:31.693Z,5.86
2018-01-12T04:11:31.262Z,5.84
2018-01-12T04:12:31.170Z,5.83
2018-01-12T04:13:31.643Z,5.88
2018-01-12T04:14:31.015Z,5.83
2018-01-12T04:15:31.445Z,5.86
2018-01-12T04:16:31.925Z,5.85
2018-01-12T04:17:32.261Z,5.84
2018-01-12T04:18:31.599Z,5.86
2018-01-12T04:19:31.930Z,5.85
2018-01-12T04:20:32.284Z,5.86
2018-01-12T04:21:31.653Z,5.85
2018-01-12T04:22:32.081Z,5.82
2018-01-12T04:23:31.405Z,5.85
2018-01-12T04:24:31.818Z,5.82
2018-01-12T04:25:32.089Z,5.82
2018-01-12T04:26:31.339Z,5.85
2018-01-12T04:27:31.562Z,5.85
2018-01-12T04:28:31.687Z,5.85
2018-01-12T04:29:32.085Z,5.83
2018-01-12T04:30:31.455Z,5.84
2018-01-12T04:31:31.755Z,5.86
2018-01-12T04:32:32.077Z,5.84
2018-01-12T04:33:31.578Z,5.86
2018-01-12T04:34:31.611Z,5.81
2018-01-12T04:35:31.723Z,5.82
2018-01-12T04:36:31.886Z,5.85
2018-01-12T04:37:31.990Z,5.83
2018-01-12T04:38:31.269Z,5.85
2018-01-12T04:39:31.557Z,5.82
2018-01-12T04:40:31.796Z,5.85
2018-01-12T04:41:32.121Z,5.81
2018-01-12T04:42:31.339Z,5.84
2018-01-12T04:43:31.565Z,5.85
2018-01-12T04:44:31.981Z,5.85
2018-01-12T04:45:32.383Z,5.82
2018-01-12T04:46:31.687Z,5.82
2018-01-12T04:47:31.997Z,5.83
2018-01-12T04:48:32.204Z,5.84
2018-01-12T04:49:31.538Z,5.83
2018-01-12T04:50:32.012Z,5.81
2018-01-12T04:51:31.611Z,5.83
2018-01-12T04:52:32.073Z,5.84
2018-01-12T04:53:31.536Z,5.81
2018-01-12T04:54:31.864Z,5.84
2018-01-12T04:55:32.413Z,5.84
2018-01-12T04:56:31.951Z,5.82
2018-01-12T04:57:32.516Z,5.82
2018-01-12T04:58:31.998Z,5.83
2018-01-12T04:59:31.489Z,5.83
2018-01-12T05:00:32.081Z,5.82
2018-01-12T05:01:31.575Z,5.82
2018-01-12T05:02:32.142Z,5.82
2018-01-12T05:03:31.697Z,5.81
2018-01-12T05:04:32.243Z,5.79
2018-01-12T05:05:31.999Z,5.83
2018-01-12T05:06:31.482Z,5.8
2018-01-12T05:07:32.014Z,5.81
2018-01-12T05:08:31.612Z,5.8
2018-01-12T05:09:32.540Z,5.8
2018-01-12T05:10:32.110Z,5.8
2018-01-12T05:11:31.675Z,5.79
2018-01-12T05:12:32.260Z,5.81
2018-01-12T05:13:31.854Z,5.81
2018-01-12T05:14:32.413Z,5.8
2018-01-12T05:15:31.923Z,5.8
2018-01-12T05:16:31.678Z,5.81
2018-01-12T05:17:32.185Z,5.79
2018-01-12T05:18:31.682Z,5.84
2018-01-12T05:19:32.365Z,5.82
2018-01-12T05:20:31.837Z,5.84
2018-01-12T05:21:32.313Z,5.82
2018-01-12T05:22:32.242Z,5.78
2018-01-12T05:23:31.695Z,5.79
2018-01-12T05:24:32.024Z,5.77
2018-01-12T05:25:32.388Z,5.78
2018-01-12T05:26:31.999Z,5.78
2018-01-12T05:27:32.330Z,5.78
2018-01-12T05:28:31.655Z,5.78
2018-01-12T05:29:31.900Z,5.78
2018-01-12T05:30:32.129Z,5.75
2018-01-12T05:31:32.501Z,5.77
2018-01-12T05:32:31.776Z,5.79
2018-01-12T05:33:32.032Z,5.75
2018-01-12T05:34:32.357Z,5.76
2018-01-12T05:35:31.689Z,5.75
2018-01-12T05:36:31.950Z,5.77
2018-01-12T05:37:32.415Z,5.75
2018-01-12T05:38:31.728Z,5.76
2018-01-12T05:39:32.190Z,5.77
2018-01-12T05:40:31.517Z,5.77
2018-01-12T05:41:31.833Z,5.73
2018-01-12T05:42:32.333Z,5.73
2018-01-12T05:43:31.732Z,5.77
2018-01-12T05:44:32.088Z,5.76
2018-01-12T05:45:32.397Z,5.74
2018-01-12T05:46:31.564Z,5.76
2018-01-12T05:47:32.262Z,5.76
2018-01-12T05:48:32.080Z,5.78
2018-01-12T05:49:32.403Z,5.75
2018-01-12T05:50:31.693Z,5.73
2018-01-12T05:51:31.914Z,5.74
2018-01-12T05:52:32.164Z,5.76
2018-01-12T05:53:32.606Z,5.72
2018-01-12T05:54:31.705Z,5.74
2018-01-12T05:55:31.974Z,5.76
2018-01-12T05:56:32.328Z,5.76
2018-01-12T05:57:31.857Z,5.74
2018-01-12T05:58:32.104Z,5.76
2018-01-12T05:59:32.376Z,5.75
2018-01-12T06:00:31.692Z,5.75
2018-01-12T06:01:32.020Z,5.75
2018-01-12T06:02:32.384Z,5.72
2018-01-12T06:03:32.639Z,5.73
2018-01-12T06:04:31.887Z,5.75
2018-01-12T06:05:32.131Z,5.74
2018-01-12T06:06:32.406Z,5.75
2018-01-12T06:07:31.613Z,5.72
2018-01-12T06:08:32.254Z,5.72
2018-01-12T06:09:31.822Z,5.75
2018-01-12T06:10:32.020Z,5.73
2018-01-12T06:11:32.136Z,5.73
2018-01-12T06:12:32.671Z,5.73
2018-01-12T06:13:32.143Z,5.7
2018-01-12T06:14:32.492Z,5.69
2018-01-12T06:15:31.781Z,5.7
2018-01-12T06:16:32.035Z,5.68
2018-01-12T06:17:31.563Z,5.69
2018-01-12T06:18:32.014Z,5.69
2018-01-12T06:19:31.328Z,5.69
2018-01-12T06:20:31.717Z,5.71
2018-01-12T06:21:31.865Z,5.7
2018-01-12T06:22:31.053Z,5.72
2018-01-12T06:23:31.392Z,5.73
2018-01-12T06:24:31.818Z,5.74
2018-01-12T06:25:31.219Z,5.73
2018-01-12T06:26:31.602Z,5.74
2018-01-12T06:27:31.843Z,5.72
2018-01-12T06:28:32.029Z,5.7
2018-01-12T06:29:31.220Z,5.71
2018-01-12T06:30:31.413Z,5.7
2018-01-12T06:31:31.947Z,5.68
2018-01-12T06:32:31.259Z,5.69
2018-01-12T06:33:31.543Z,5.7
2018-01-12T06:34:31.735Z,5.72
2018-01-12T06:35:32.063Z,5.69
2018-01-12T06:36:31.411Z,5.71
2018-01-12T06:37:31.628Z,5.72
2018-01-12T06:38:31.753Z,5.7
2018-01-12T06:39:31.871Z,5.68
2018-01-12T06:40:32.007Z,5.69
2018-01-12T06:41:31.412Z,5.69
2018-01-12T06:42:31.634Z,5.69
2018-01-12T06:43:31.954Z,5.69
2018-01-12T06:44:31.217Z,5.71
2018-01-12T06:45:31.375Z,5.68
2018-01-12T06:46:31.603Z,5.7
2018-01-12T06:47:31.808Z,5.7
2018-01-12T06:48:31.675Z,5.71
2018-01-12T06:49:31.129Z,5.67
2018-01-12T06:50:31.371Z,5.7
2018-01-12T06:51:31.514Z,5.71
2018-01-12T06:52:30.974Z,5.68
2018-01-12T06:53:31.455Z,5.69
2018-01-12T06:54:31.664Z,5.69
2018-01-12T06:55:30.895Z,5.69
2018-01-12T06:56:31.103Z,5.71
2018-01-12T06:57:31.389Z,5.69
2018-01-12T06:58:31.512Z,5.69
2018-01-12T06:59:31.943Z,5.71
2018-01-12T07:00:31.247Z,5.7
2018-01-12T07:01:31.492Z,5.67
2018-01-12T07:02:31.768Z,5.69
2018-01-12T07:03:31.279Z,5.7
2018-01-12T07:04:31.872Z,5.69
2018-01-12T07:05:31.326Z,5.7
2018-01-12T07:06:31.818Z,5.71
2018-01-12T07:07:31.279Z,5.7
2018-01-12T07:08:31.634Z,5.69
2018-01-12T07:09:30.936Z,5.69
2018-01-12T07:10:31.187Z,5.69
2018-01-12T07:11:31.435Z,5.7
2018-01-12T07:12:31.833Z,5.7
2018-01-12T07:13:31.134Z,5.71
2018-01-12T07:14:31.589Z,5.72
2018-01-12T07:15:31.874Z,5.7
2018-01-12T07:16:31.140Z,5.7
2018-01-12T07:17:31.690Z,5.7
2018-01-12T07:18:31.399Z,5.71
2018-01-12T07:19:31.931Z,5.7
2018-01-12T07:20:31.240Z,5.71
2018-01-12T07:21:31.718Z,5.72
2018-01-12T07:22:32.196Z,5.71
2018-01-12T07:23:31.844Z,5.7
2018-01-12T07:24:32.205Z,5.71
2018-01-12T07:25:31.630Z,5.73
2018-01-12T07:26:31.932Z,5.74
2018-01-12T07:27:32.166Z,5.72
2018-01-12T07:28:31.705Z,5.72
2018-01-12T07:29:32.148Z,5.71
2018-01-12T07:30:31.516Z,5.73
2018-01-12T07:31:31.730Z,5.72
2018-01-12T07:32:32.001Z,5.69
2018-01-12T07:33:31.622Z,5.71
2018-01-12T07:34:31.965Z,5.73
2018-01-12T07:35:31.279Z,5.73
2018-01-12T07:36:31.875Z,5.74
2018-01-12T07:37:32.121Z,5.73
2018-01-12T07:38:31.446Z,5.7
2018-01-12T07:39:31.883Z,5.72
2018-01-12T07:40:32.230Z,5.71
2018-01-12T07:41:31.531Z,5.71
2018-01-12T07:42:31.853Z,5.72
2018-01-12T07:43:32.117Z,5.71
2018-01-12T07:44:31.677Z,5.73
2018-01-12T07:45:32.016Z,5.72
2018-01-12T07:46:32.313Z,5.72
2018-01-12T07:47:31.807Z,5.73
2018-01-12T07:48:32.219Z,5.71
2018-01-12T07:49:31.650Z,5.73
2018-01-12T07:50:32.025Z,5.71
2018-01-12T07:51:31.289Z,5.72
2018-01-12T07:52:32.585Z,5.7
2018-01-12T07:53:31.736Z,5.72
2018-01-12T07:54:32.169Z,5.69
2018-01-12T07:55:31.698Z,5.72
2018-01-12T07:56:31.141Z,5.73
2018-01-12T07:57:31.197Z,5.72
2018-01-12T07:58:31.502Z,5.71
2018-01-12T07:59:31.731Z,5.74
2018-01-12T08:00:31.941Z,5.74
2018-01-12T08:01:31.196Z,5.74
2018-01-12T08:02:31.442Z,5.74
2018-01-12T08:03:31.678Z,5.72
2018-01-12T08:04:32.068Z,5.74
2018-01-12T08:05:31.275Z,5.71
2018-01-12T08:06:31.521Z,5.75
2018-01-12T08:07:31.666Z,5.72
2018-01-12T08:08:32.023Z,5.74
2018-01-12T08:09:31.599Z,5.71
2018-01-12T08:10:31.914Z,5.73
2018-01-12T08:11:31.952Z,5.73
2018-01-12T08:12:31.334Z,5.72
2018-01-12T08:13:31.682Z,5.72
2018-01-12T08:14:32.049Z,5.7
2018-01-12T08:15:31.314Z,5.74
2018-01-12T08:16:31.975Z,5.74
2018-01-12T08:17:31.199Z,5.71
2018-01-12T08:18:31.563Z,5.74
2018-01-12T08:19:31.903Z,5.74
2018-01-12T08:20:31.494Z,5.74
2018-01-12T08:21:31.938Z,5.73
2018-01-12T08:22:31.362Z,5.72
2018-01-12T08:23:31.555Z,5.72
2018-01-12T08:24:30.845Z,5.75
2018-01-12T08:25:31.130Z,5.74
2018-01-12T08:26:31.473Z,5.73
2018-01-12T08:27:31.929Z,5.73
2018-01-12T08:28:31.276Z,5.75
2018-01-12T08:29:31.496Z,5.76
2018-01-12T08:30:31.736Z,5.76
2018-01-12T08:31:31.255Z,5.76
2018-01-12T08:32:31.582Z,5.73
2018-01-12T08:33:31.141Z,5.76
2018-01-12T08:34:31.528Z,5.74
2018-01-12T08:35:31.882Z,5.74
2018-01-12T08:36:31.396Z,5.76
2018-01-12T08:37:31.637Z,5.76
2018-01-12T08:38:31.925Z,5.76
2018-01-12T08:39:31.419Z,5.72
2018-01-12T08:40:31.730Z,5.74
2018-01-12T08:41:30.992Z,5.75
2018-01-12T08:42:31.031Z,5.76
2018-01-12T08:43:31.332Z,5.76
2018-01-12T08:44:31.565Z,5.77
2018-01-12T08:45:31.744Z,5.76
2018-01-12T08:46:30.997Z,5.76
2018-01-12T08:47:31.252Z,5.76
2018-01-12T08:48:31.570Z,5.77
2018-01-12T08:49:31.881Z,5.76
2018-01-12T08:50:32.106Z,5.77
2018-01-12T08:51:31.515Z,5.75
2018-01-12T08:52:31.089Z,5.76
2018-01-12T08:53:31.411Z,5.75
2018-01-12T08:54:31.651Z,5.77
2018-01-12T08:55:31.028Z,5.75
2018-01-12T08:56:31.335Z,5.79
2018-01-12T08:57:31.541Z,5.78
2018-01-12T08:58:31.931Z,5.78
2018-01-12T08:59:31.250Z,5.78
2018-01-12T09:00:31.684Z,5.75
2018-01-12T09:01:31.144Z,5.77
2018-01-12T09:02:31.447Z,5.79
2018-01-12T09:03:31.923Z,5.76
2018-01-12T09:04:31.181Z,5.78
2018-01-12T09:05:31.523Z,5.81
2018-01-12T09:06:32.858Z,5.79
2018-01-12T09:07:31.107Z,5.77
2018-01-12T09:08:31.521Z,5.78
2018-01-12T09:09:31.751Z,5.78
2018-01-12T09:10:31.106Z,5.78
2018-01-12T09:11:31.289Z,5.77
2018-01-12T09:12:31.427Z,5.77
2018-01-12T09:13:31.726Z,5.78
2018-01-12T09:14:31.279Z,5.78
2018-01-12T09:15:31.433Z,5.79
2018-01-12T09:16:31.671Z,5.83
2018-01-12T09:17:31.954Z,5.8
2018-01-12T09:18:31.260Z,5.83
2018-01-12T09:19:31.675Z,5.81
2018-01-12T09:20:31.000Z,5.83
2018-01-12T09:21:31.543Z,5.82
2018-01-12T09:22:31.793Z,5.8
2018-01-12T09:23:32.084Z,5.79
2018-01-12T09:24:32.268Z,5.81
2018-01-12T09:25:31.641Z,5.82
2018-01-12T09:26:31.781Z,5.8
2018-01-12T09:27:32.048Z,5.84
2018-01-12T09:28:32.337Z,5.85
2018-01-12T09:29:31.587Z,5.84
2018-01-12T09:30:31.975Z,5.82
2018-01-12T09:31:32.403Z,5.82
2018-01-12T09:32:31.785Z,5.85
2018-01-12T09:33:32.081Z,5.82
2018-01-12T09:34:32.352Z,5.81
2018-01-12T09:35:31.864Z,5.81
2018-01-12T09:36:32.119Z,5.84
2018-01-12T09:37:32.446Z,5.85
2018-01-12T09:38:31.822Z,5.87
2018-01-12T09:39:32.061Z,5.86
2018-01-12T09:40:32.226Z,5.84
2018-01-12T09:41:32.498Z,5.84
2018-01-12T09:42:31.863Z,5.85
2018-01-12T09:43:32.166Z,5.88
2018-01-12T09:44:32.502Z,5.82
2018-01-12T09:45:31.941Z,5.85
2018-01-12T09:46:31.586Z,5.84
2018-01-12T09:47:31.786Z,5.87
2018-01-12T09:48:31.964Z,5.86
2018-01-12T09:49:32.238Z,5.87
2018-01-12T09:50:31.660Z,5.88
2018-01-12T09:51:32.228Z,5.89
2018-01-12T09:52:31.607Z,5.87
2018-01-12T09:53:31.949Z,5.8
2018-01-12T09:54:31.405Z,5.82
2018-01-12T09:55:32.001Z,5.85
2018-01-12T09:56:31.537Z,5.83
2018-01-12T09:57:31.850Z,5.87
2018-01-12T09:58:31.128Z,5.86
2018-01-12T09:59:31.427Z,5.82
2018-01-12T10:00:31.872Z,5.85
2018-01-12T10:01:33.312Z,5.82
2018-01-12T10:02:32.046Z,5.81
2018-01-12T10:03:32.652Z,5.84
2018-01-12T10:04:31.416Z,5.86
2018-01-12T10:05:33.466Z,5.85
2018-01-12T10:06:32.976Z,5.87
2018-01-12T10:07:32.456Z,5.86
2018-01-12T10:08:31.199Z,5.86
2018-01-12T10:09:32.118Z,5.89
2018-01-12T10:10:33.350Z,5.89
2018-01-12T10:11:33.234Z,5.88
2018-01-12T10:12:33.398Z,5.88
2018-01-12T10:13:34.221Z,5.84
2018-01-12T10:14:32.998Z,5.88
2018-01-12T10:15:31.602Z,5.86
2018-01-12T10:16:32.095Z,5.87
2018-01-12T10:17:31.790Z,5.91
2018-01-12T10:18:31.238Z,5.89
2018-01-12T10:19:31.475Z,5.92
2018-01-12T10:20:32.527Z,5.89
2018-01-12T10:21:32.042Z,5.89
2018-01-12T10:22:31.608Z,5.89
2018-01-12T10:23:32.256Z,5.87
2018-01-12T10:24:31.769Z,5.87
2018-01-12T10:25:32.676Z,5.89
2018-01-12T10:26:32.601Z,5.87
2018-01-12T10:27:32.567Z,5.9
2018-01-12T10:28:32.042Z,5.85
2018-01-12T10:29:33.024Z,5.87
2018-01-12T10:30:32.492Z,5.89
2018-01-12T10:31:32.699Z,5.88
2018-01-12T10:32:32.000Z,5.89
2018-01-12T10:33:32.221Z,5.86
2018-01-12T10:34:32.691Z,5.88
2018-01-12T10:35:32.079Z,5.88
2018-01-12T10:36:32.307Z,5.87
2018-01-12T10:37:32.499Z,5.88
2018-01-12T10:38:31.601Z,5.9
2018-01-12T10:39:32.118Z,5.89
2018-01-12T10:40:32.654Z,5.84
2018-01-12T10:41:32.021Z,5.85
2018-01-12T10:42:32.572Z,5.87
2018-01-12T10:43:31.896Z,5.89
2018-01-12T10:44:32.366Z,5.87
2018-01-12T10:45:31.616Z,5.92
2018-01-12T10:46:31.877Z,5.92
2018-01-12T10:47:32.273Z,5.92
2018-01-12T10:48:32.687Z,5.9
2018-01-12T10:49:32.283Z,5.91
2018-01-12T10:50:31.815Z,5.87
2018-01-12T10:51:32.183Z,5.91
2018-01-12T10:52:32.370Z,5.91
2018-01-12T10:53:31.402Z,5.93
2018-01-12T10:54:31.703Z,5.93
2018-01-12T10:55:32.144Z,5.89
2018-01-12T10:56:32.397Z,5.87
2018-01-12T10:57:31.745Z,5.91
2018-01-12T10:58:32.042Z,5.92
2018-01-12T10:59:32.364Z,5.91
2018-01-12T11:00:31.810Z,5.88
2018-01-12T11:01:32.090Z,5.9
2018-01-12T11:02:32.366Z,5.93
2018-01-12T11:03:31.659Z,5.93
2018-01-12T11:04:31.887Z,5.97
2018-01-12T11:05:32.112Z,5.94
2018-01-12T11:06:32.412Z,5.93
2018-01-12T11:07:31.711Z,5.92
2018-01-12T11:08:31.892Z,5.95
2018-01-12T11:09:31.988Z,5.91
2018-01-12T11:10:32.149Z,5.9
2018-01-12T11:11:32.138Z,5.91
2018-01-12T11:12:32.472Z,5.93
2018-01-12T11:13:31.872Z,5.96
2018-01-12T11:14:32.224Z,5.96
2018-01-12T11:15:32.479Z,5.93
2018-01-12T11:16:31.857Z,5.92
2018-01-12T11:17:31.987Z,5.98
2018-01-12T11:18:32.373Z,5.95
2018-01-12T11:19:31.714Z,5.95
2018-01-12T11:20:31.958Z,5.93
2018-01-12T11:21:32.057Z,5.96
2018-01-12T11:22:32.384Z,5.98
2018-01-12T11:23:32.316Z,5.99
2018-01-12T11:24:32.458Z,6
2018-01-12T11:25:31.638Z,5.97
2018-01-12T11:26:32.020Z,5.97
2018-01-12T11:27:32.254Z,5.98
2018-01-12T11:28:32.542Z,5.98
2018-01-12T11:29:31.692Z,5.98
2018-01-12T11:30:31.850Z,5.99
2018-01-12T11:31:32.502Z,5.99
2018-01-12T11:32:31.942Z,5.98
2018-01-12T11:33:32.291Z,6
2018-01-12T11:34:32.449Z,5.98
2018-01-12T11:35:31.643Z,5.97
2018-01-12T11:36:32.017Z,5.97
2018-01-12T11:37:32.461Z,5.96
2018-01-12T11:38:31.714Z,5.98
2018-01-12T11:39:31.888Z,5.99
2018-01-12T11:40:32.025Z,6
2018-01-12T11:41:32.165Z,5.97
2018-01-12T11:42:32.353Z,5.97
2018-01-12T11:43:31.838Z,5.93
2018-01-12T11:44:32.106Z,5.96
2018-01-12T11:45:32.393Z,5.98
2018-01-12T11:46:31.513Z,6.02
2018-01-12T11:47:31.651Z,5.94
2018-01-12T11:48:32.057Z,5.92
2018-01-12T11:49:32.307Z,5.95
2018-01-12T11:50:32.474Z,5.96
2018-01-12T11:51:31.690Z,5.98
2018-01-12T11:52:31.974Z,5.96
2018-01-12T11:53:32.445Z,5.95
2018-01-12T11:54:31.816Z,5.99
2018-01-12T11:55:32.013Z,5.96
2018-01-12T11:56:32.164Z,5.97
2018-01-12T11:57:31.562Z,5.96
2018-01-12T11:58:31.825Z,5.98
2018-01-12T11:59:32.072Z,6.01
2018-01-12T12:00:31.257Z,5.98
2018-01-12T12:01:31.481Z,6.01
2018-01-12T12:02:31.673Z,6.02
2018-01-12T12:03:32.234Z,6.01
2018-01-12T12:04:31.734Z,6.05
2018-01-12T12:05:32.096Z,6.06
2018-01-12T12:06:31.481Z,6.05
2018-01-12T12:07:31.786Z,6.07
2018-01-12T12:08:32.542Z,6.05
2018-01-12T12:09:31.768Z,6.07
2018-01-12T12:10:32.045Z,6.08
2018-01-12T12:11:32.206Z,6.09
2018-01-12T12:12:31.556Z,6.09
2018-01-12T12:13:31.915Z,6.06
2018-01-12T12:14:32.328Z,6.03
2018-01-12T12:15:31.873Z,6.06
2018-01-12T12:16:32.166Z,6.08
2018-01-12T12:17:32.040Z,6.11
2018-01-12T12:18:32.086Z,6.11
2018-01-12T12:19:31.418Z,6.15
2018-01-12T12:20:31.891Z,6.13
2018-01-12T12:21:33.811Z,6.12
2018-01-12T12:22:31.666Z,6.09
2018-01-12T12:23:31.998Z,6.1
2018-01-12T12:24:35.579Z,6.13
2018-01-12T12:25:32.228Z,6.11
2018-01-12T12:26:32.545Z,6.09
2018-01-12T12:27:31.912Z,6.11
2018-01-12T12:28:32.363Z,6.08
2018-01-12T12:29:32.350Z,6.08
2018-01-12T12:30:31.659Z,6.08
2018-01-12T12:31:32.182Z,6.09
2018-01-12T12:32:37.673Z,6.09
2018-01-12T12:33:33.264Z,6.08
2018-01-12T12:34:32.497Z,6.08
2018-01-12T12:35:32.031Z,6.09
2018-01-12T12:36:32.303Z,6.08
2018-01-12T12:37:31.650Z,6.08
2018-01-12T12:38:32.342Z,6.09
2018-01-12T12:39:32.170Z,6.05
2018-01-12T12:40:32.516Z,6.08
2018-01-12T12:41:33.299Z,6.08
2018-01-12T12:42:31.777Z,6.11
2018-01-12T12:43:32.124Z,6.13
2018-01-12T12:44:32.496Z,6.06
2018-01-12T12:45:32.073Z,6.1
2018-01-12T12:46:32.417Z,6.08
2018-01-12T12:47:31.811Z,6.04
2018-01-12T12:48:32.195Z,6.06
2018-01-12T12:49:33.145Z,6.03
2018-01-12T12:50:32.424Z,6.03
2018-01-12T12:51:31.709Z,6.08
2018-01-12T12:52:32.090Z,6.07
2018-01-12T12:53:32.555Z,6.09
2018-01-12T12:54:31.941Z,6.09
2018-01-12T12:55:32.475Z,6.08
2018-01-12T12:56:31.848Z,6.03
2018-01-12T12:57:32.130Z,6.04
2018-01-12T12:58:31.791Z,6.06
2018-01-12T12:59:33.218Z,6.06
2018-01-12T13:00:31.574Z,6.07
2018-01-12T13:01:32.051Z,6.08
2018-01-12T13:02:33.034Z,6.07
2018-01-12T13:03:32.263Z,6.07
2018-01-12T13:04:31.602Z,6.09
2018-01-12T13:05:31.970Z,6.08
2018-01-12T13:06:31.556Z,6.08
2018-01-12T13:07:31.587Z,6.04
2018-01-12T13:08:31.860Z,6.08
2018-01-12T13:09:40.603Z,6.06
2018-01-12T13:10:34.304Z,6.05
2018-01-12T13:11:36.320Z,6.05
2018-01-12T13:12:35.768Z,6.06
2018-01-12T13:13:34.968Z,6.09
2018-01-12T13:14:34.687Z,6.07
2018-01-12T13:15:31.949Z,6.04
2018-01-12T13:16:32.285Z,6.06
2018-01-12T13:17:31.668Z,6.03
2018-01-12T13:18:34.184Z,6.05
2018-01-12T13:19:31.832Z,6.07
2018-01-12T13:20:32.882Z,6.08
2018-01-12T13:21:32.122Z,6.08
2018-01-12T13:22:31.543Z,6.04